NORTHEAST SUFFOLK  -  Winter Weather Advisory Winter Weather Advisory        NORTHERN NASSAU  -  Winter Weather Advisory Winter Weather Advisory        NORTHWEST SUFFOLK  -  Winter Weather Advisory Winter Weather Advisory        SOUTHEAST SUFFOLK  -  Winter Weather Advisory Winter Weather Advisory        SOUTHERN NASSAU  -  Winter Weather Advisory Winter Weather Advisory        SOUTHWEST SUFFOLK  -  Winter Weather Advisory Winter Weather Advisory      

Active alerts

Northern Nassau
  Details for Northern Nassau Winter Weather Advisory
Southern Nassau
  Details for Southern Nassau Winter Weather Advisory
Northwest Suffolk
  Details for Northwest Suffolk Winter Weather Advisory
Southwest Suffolk
  Details for Southwest Suffolk Winter Weather Advisory
Northeast Suffolk
  Details for Northeast Suffolk Winter Weather Advisory
Southeast Suffolk
  Details for Southeast Suffolk Winter Weather Advisory


WXM80 ListenWXM80 Stop

You find our weather info also at:

UK Metoffice

WeatherCloud

Weather Underground

Northeastern Weather Network

AWEKAS

Citizen Weather Observer Program (CWOP)

HAMweather, WeatherForYou, PWS Weather


Weather Underground History page Text

Daily Summary for March 26, 2017 Units:  Metric    English   Both
« Previous Day
Next Day »
Daily Weekly Monthly Yearly Custom
  High: Low: Average:
Temperature: 4.7 °C 2.4 °C 3.8 °C
Dew Point: 3.1 °C 0.9 °C 2.2 °C
Humidity: 96 % 84 % 90 %
Wind Speed: 17.2 km/h 1.8 km/h 10.8 km/h
Wind Gust: 27.8 km/h - -
Wind:- - ENE
Pressure: 1031.4 hPa 1026 hPa -
Precipitation: 0 mm    
Historical Graphs
 
 
Tabular Data for March 26, 2017
Time Temperature Dew Point Pressure Wind Wind Speed Wind Gust Humidity Rainfall Rate (Hourly)
00:01 4.3 °C 2.8 °C 1028.7 hPa NE 6.6 km/h 7.4 km/h 90 % 0 mm
00:06 4.3 °C 2.8 °C 1028.3 hPa NE 5.6 km/h 8 km/h 90 % 0 mm
00:11 4.3 °C 2.8 °C 1028.3 hPa ENE 8 km/h 13 km/h 90 % 0 mm
00:16 4.3 °C 2.9 °C 1028.7 hPa NE 3.1 km/h 5.6 km/h 91 % 0 mm
00:21 4.3 °C 2.9 °C 1028.7 hPa ENE 5 km/h 7.4 km/h 91 % 0 mm
00:26 4.2 °C 2.9 °C 1028.7 hPa ENE 6.4 km/h 11.1 km/h 91 % 0 mm
00:31 4.2 °C 2.7 °C 1028.7 hPa ENE 6.9 km/h 11.1 km/h 90 % 0 mm
00:36 4.2 °C 2.7 °C 1028.7 hPa ENE 6.6 km/h 13 km/h 90 % 0 mm
00:41 4.1 °C 2.6 °C 1028.7 hPa ENE 7.7 km/h 16.7 km/h 90 % 0 mm
00:46 4.1 °C 2.6 °C 1028.7 hPa NE 3.9 km/h 5.6 km/h 90 % 0 mm
00:51 4.1 °C 2.4 °C 1028.7 hPa ENE 7.9 km/h 17.7 km/h 89 % 0 mm
00:56 4.1 °C 2.4 °C 1028.7 hPa ENE 8.5 km/h 14.8 km/h 89 % 0 mm
01:01 4.1 °C 2.4 °C 1029 hPa NE 5.8 km/h 7.4 km/h 89 % 0 mm
01:06 4.1 °C 2.4 °C 1028.7 hPa East 8 km/h 14.8 km/h 89 % 0 mm
01:11 4.1 °C 2.4 °C 1029 hPa NE 5.3 km/h 12.9 km/h 89 % 0 mm
01:16 4.1 °C 2.4 °C 1028.7 hPa NE 6.1 km/h 11.1 km/h 89 % 0 mm
01:21 4.1 °C 2.4 °C 1028.7 hPa NE 5 km/h 8 km/h 89 % 0 mm
01:26 4.1 °C 2.4 °C 1028.7 hPa NE 10.9 km/h 16.7 km/h 89 % 0 mm
01:31 4.1 °C 2.4 °C 1028.7 hPa NE 9 km/h 18.5 km/h 89 % 0 mm
01:37 4.1 °C 2.4 °C 1028.7 hPa ENE 8.7 km/h 14.8 km/h 89 % 0 mm
01:42 4.1 °C 2.4 °C 1028.3 hPa ENE 7.7 km/h 13 km/h 89 % 0 mm
01:47 4 °C 2.3 °C 1029 hPa ENE 4.8 km/h 13 km/h 89 % 0 mm
01:52 3.9 °C 2.3 °C 1028.7 hPa ENE 9.8 km/h 14.8 km/h 89 % 0 mm
01:57 3.9 °C 2.3 °C 1029 hPa ENE 7.4 km/h 11.3 km/h 89 % 0 mm
02:02 3.9 °C 2.4 °C 1028.7 hPa ENE 9.3 km/h 11.3 km/h 90 % 0 mm
02:07 3.9 °C 2.4 °C 1029 hPa East 7.4 km/h 13 km/h 90 % 0 mm
02:12 3.9 °C 2.4 °C 1029 hPa East 7.2 km/h 13 km/h 90 % 0 mm
02:17 3.9 °C 2.4 °C 1029 hPa East 6.6 km/h 9.7 km/h 90 % 0 mm
02:22 3.9 °C 2.4 °C 1029 hPa ENE 4.8 km/h 6.4 km/h 90 % 0 mm
02:27 3.9 °C 2.4 °C 1029.3 hPa East 5.8 km/h 8 km/h 90 % 0 mm
02:32 3.9 °C 2.4 °C 1029 hPa East 8.2 km/h 11.3 km/h 90 % 0 mm
02:37 3.9 °C 2.4 °C 1029.3 hPa East 5.1 km/h 7.4 km/h 90 % 0 mm
02:42 3.9 °C 2.4 °C 1029.3 hPa ENE 5.5 km/h 11.1 km/h 90 % 0 mm
02:47 3.9 °C 2.4 °C 1029 hPa ENE 7.7 km/h 9.3 km/h 90 % 0 mm
02:52 3.9 °C 2.4 °C 1029 hPa NE 9.5 km/h 13 km/h 90 % 0 mm
02:57 3.9 °C 2.4 °C 1029 hPa NE 10 km/h 13 km/h 90 % 0 mm
03:02 3.8 °C 2.3 °C 1029.3 hPa ENE 8.4 km/h 13 km/h 90 % 0 mm
03:07 3.8 °C 2.2 °C 1029 hPa ENE 9.7 km/h 14.5 km/h 89 % 0 mm
03:12 3.8 °C 2.2 °C 1029.3 hPa ENE 11.3 km/h 19.3 km/h 89 % 0 mm
03:17 3.8 °C 2.2 °C 1029.3 hPa ENE 8 km/h 12.9 km/h 89 % 0 mm
03:22 3.8 °C 2 °C 1029.3 hPa ENE 9.7 km/h 16.1 km/h 88 % 0 mm
03:27 3.8 °C 1.8 °C 1029.3 hPa ENE 9.7 km/h 16.1 km/h 87 % 0 mm
03:32 3.8 °C 1.8 °C 1029.3 hPa ENE 9.7 km/h 19.3 km/h 87 % 0 mm
03:37 3.7 °C 1.8 °C 1029.3 hPa ENE 9.7 km/h 19.3 km/h 87 % 0 mm
03:42 3.7 °C 1.6 °C 1029.3 hPa ENE 12.9 km/h 20.9 km/h 86 % 0 mm
03:47 3.7 °C 1.6 °C 1029.3 hPa ENE 11.3 km/h 19.3 km/h 86 % 0 mm
03:52 3.7 °C 1.7 °C 1029.3 hPa ENE 12.9 km/h 19.3 km/h 87 % 0 mm
03:57 3.6 °C 1.6 °C 1029.3 hPa ENE 10 km/h 18.5 km/h 87 % 0 mm
04:02 3.5 °C 1.7 °C 1029.3 hPa ENE 12.9 km/h 20.9 km/h 88 % 0 mm
04:07 3.4 °C 1.7 °C 1029.3 hPa ENE 11.3 km/h 19.3 km/h 89 % 0 mm
04:12 3.3 °C 1.6 °C 1029.3 hPa ENE 8 km/h 16.1 km/h 89 % 0 mm
04:17 3.3 °C 1.8 °C 1029.3 hPa ENE 11.3 km/h 19.3 km/h 90 % 0 mm
04:22 3.2 °C 1.7 °C 1029.3 hPa ENE 11.3 km/h 19.3 km/h 90 % 0 mm
04:27 3.2 °C 1.7 °C 1029.3 hPa NE 11.9 km/h 18.5 km/h 90 % 0 mm
04:32 3.2 °C 1.7 °C 1029 hPa ENE 14.5 km/h 24.1 km/h 90 % 0 mm
04:37 3.2 °C 1.6 °C 1029.3 hPa ENE 14.5 km/h 19.3 km/h 89 % 0 mm
04:42 3.2 °C 1.6 °C 1029.3 hPa ENE 12.9 km/h 19.3 km/h 89 % 0 mm
04:47 3.2 °C 1.6 °C 1029.3 hPa ENE 12.9 km/h 20.9 km/h 89 % 0 mm
04:52 3.2 °C 1.6 °C 1029.3 hPa ENE 16.1 km/h 20.9 km/h 89 % 0 mm
04:58 3.2 °C 1.4 °C 1029.3 hPa East 15.3 km/h 20.4 km/h 88 % 0 mm
05:03 3.2 °C 1.6 °C 1029.3 hPa ENE 15 km/h 20.4 km/h 89 % 0 mm
05:08 3.2 °C 1.6 °C 1029.3 hPa ENE 10.8 km/h 17.7 km/h 89 % 0 mm
05:13 3.2 °C 1.4 °C 1029.3 hPa NE 11.9 km/h 16.7 km/h 88 % 0 mm
05:18 3.2 °C 1.6 °C 1029.3 hPa ENE 12.4 km/h 18.5 km/h 89 % 0 mm
05:23 3.2 °C 1.6 °C 1029.3 hPa ENE 11.9 km/h 14.8 km/h 89 % 0 mm
05:28 3.2 °C 1.4 °C 1029.3 hPa NE 13.5 km/h 20.4 km/h 88 % 0 mm
05:33 3.1 °C 1.3 °C 1029.3 hPa ENE 14.6 km/h 20.4 km/h 88 % 0 mm
05:38 3.1 °C 1.3 °C 1029.3 hPa NE 15.9 km/h 20.4 km/h 88 % 0 mm
05:43 3.1 °C 1.3 °C 1029.3 hPa East 14.5 km/h 18.5 km/h 88 % 0 mm
05:48 3.1 °C 1.1 °C 1029.3 hPa East 13.7 km/h 18.5 km/h 87 % 0 mm
05:53 3.1 °C 1.2 °C 1029.7 hPa ENE 16.3 km/h 24.1 km/h 87 % 0 mm
05:58 3.1 °C 1.2 °C 1029.7 hPa ENE 14.6 km/h 20.4 km/h 87 % 0 mm
06:03 3.2 °C 1.2 °C 1029.7 hPa East 16.1 km/h 20.4 km/h 87 % 0 mm
06:08 3.2 °C 1.1 °C 1029.7 hPa ENE 15.4 km/h 18.5 km/h 86 % 0 mm
06:13 3.2 °C 1.1 °C 1029.7 hPa ENE 14 km/h 18.5 km/h 86 % 0 mm
06:18 3.2 °C 1.1 °C 1029.7 hPa ENE 14.8 km/h 19.3 km/h 86 % 0 mm
06:23 3.2 °C 1.2 °C 1029.7 hPa ENE 14.6 km/h 16.7 km/h 87 % 0 mm
06:28 3.1 °C 1.2 °C 1029.7 hPa ENE 14.6 km/h 22.5 km/h 87 % 0 mm
06:33 3.1 °C 1.2 °C 1029.7 hPa ENE 13.7 km/h 18.5 km/h 87 % 0 mm
06:38 3.1 °C 0.9 °C 1029.7 hPa NE 14.3 km/h 20.4 km/h 86 % 0 mm
06:43 3.1 °C 1.1 °C 1029.7 hPa ENE 12.6 km/h 22.2 km/h 87 % 0 mm
06:48 3 °C 1.1 °C 1029.7 hPa ENE 13.8 km/h 18.5 km/h 87 % 0 mm
06:53 2.9 °C 1.2 °C 1029.7 hPa ENE 14 km/h 22.2 km/h 88 % 0 mm
06:58 2.9 °C 1.2 °C 1029.7 hPa ENE 12.9 km/h 18.5 km/h 88 % 0 mm
07:03 2.9 °C 1.2 °C 1029.7 hPa ENE 13.7 km/h 18.5 km/h 88 % 0 mm
07:08 2.9 °C 1.1 °C 1029.7 hPa ENE 13.8 km/h 22.2 km/h 88 % 0 mm
07:13 2.9 °C 1.1 °C 1029.7 hPa NE 16.3 km/h 24.1 km/h 88 % 0 mm
07:19 2.8 °C 1.2 °C 1029.7 hPa ENE 16.3 km/h 20.9 km/h 89 % 0 mm
07:24 2.7 °C 1.2 °C 1029.7 hPa NE 15 km/h 22.2 km/h 90 % 0.25 mm
07:29 2.6 °C 1.3 °C 1029.7 hPa East 15.4 km/h 20.4 km/h 91 % 0.25 mm
07:34 2.5 °C 1.2 °C 1029.7 hPa ENE 13.7 km/h 22.2 km/h 91 % 0.25 mm
07:39 2.5 °C 1.3 °C 1029.7 hPa NE 11.9 km/h 18.5 km/h 92 % 0.51 mm
07:49 2.4 °C 1.3 °C 1030 hPa ENE 14.5 km/h 14.8 km/h 92 % 0.51 mm
07:54 2.4 °C 1.3 °C 1030 hPa East 14.6 km/h 22.5 km/h 92 % 0.51 mm
07:59 2.4 °C 1.3 °C 1030.4 hPa ENE 11.7 km/h 18.5 km/h 92 % 0.51 mm
08:04 2.4 °C 1.3 °C 1030.4 hPa ENE 14.3 km/h 18.5 km/h 92 % 0.51 mm
08:09 2.4 °C 1.3 °C 1030.7 hPa East 12.1 km/h 16.7 km/h 92 % 0.51 mm
08:14 2.4 °C 1.3 °C 1030.4 hPa ENE 12.7 km/h 16.7 km/h 92 % 0.51 mm
08:19 2.4 °C 1.3 °C 1030.4 hPa NE 14.2 km/h 24.1 km/h 92 % 0.51 mm
08:24 2.4 °C 1.3 °C 1030.4 hPa ENE 14.2 km/h 16.7 km/h 92 % 0.25 mm
08:29 2.4 °C 1.3 °C 1030.4 hPa ENE 14.6 km/h 18.5 km/h 92 % 0.25 mm
08:34 2.4 °C 1.3 °C 1030.4 hPa East 13.5 km/h 16.7 km/h 92 % 0.25 mm
08:39 2.4 °C 1.1 °C 1030.4 hPa East 16.9 km/h 22.5 km/h 91 % 0 mm
08:44 2.5 °C 1.2 °C 1030.4 hPa ENE 13.5 km/h 18.5 km/h 91 % 0 mm
08:50 2.6 °C 1.2 °C 1030.4 hPa ENE 11.9 km/h 18.5 km/h 91 % 0 mm
08:55 2.6 °C 1.2 °C 1030.7 hPa East 13.4 km/h 18.5 km/h 91 % 0 mm
09:00 2.6 °C 1.3 °C 1030.7 hPa East 13.8 km/h 18.5 km/h 91 % 0 mm
09:05 2.7 °C 1.4 °C 1030.7 hPa East 11.9 km/h 18.5 km/h 91 % 0 mm
09:10 2.8 °C 1.4 °C 1030.7 hPa East 16.3 km/h 22.2 km/h 91 % 0 mm
09:15 2.8 °C 1.5 °C 1030.7 hPa East 12.7 km/h 20.4 km/h 91 % 0 mm
09:20 2.8 °C 1.3 °C 1030.4 hPa East 14.3 km/h 18.5 km/h 90 % 0 mm
09:25 2.9 °C 1.4 °C 1030.7 hPa East 14.6 km/h 20.4 km/h 90 % 0 mm
09:27 2.9 °C 1.4 °C 1030.7 hPa East 15 km/h 18.5 km/h 90 % 0 mm
09:32 3 °C 1.5 °C 1030.7 hPa East 13.8 km/h 18.5 km/h 90 % 0 mm
09:37 3.1 °C 1.6 °C 1030.7 hPa East 14.6 km/h 18.5 km/h 90 % 0 mm
09:42 3.1 °C 1.6 °C 1030.7 hPa East 14.5 km/h 20.4 km/h 90 % 0 mm
09:47 3.2 °C 1.7 °C 1031 hPa East 15.3 km/h 18.5 km/h 90 % 0 mm
09:52 3.2 °C 1.6 °C 1031 hPa ENE 12.9 km/h 18.5 km/h 89 % 0 mm
09:57 3.3 °C 1.6 °C 1031 hPa East 13.4 km/h 18.5 km/h 89 % 0 mm
10:02 3.3 °C 1.6 °C 1031 hPa ENE 11.4 km/h 14.8 km/h 89 % 0 mm
10:07 3.4 °C 1.7 °C 1031 hPa East 12.6 km/h 18.5 km/h 89 % 0 mm
10:12 3.4 °C 1.8 °C 1031 hPa East 11.3 km/h 16.7 km/h 89 % 0 mm
10:17 3.5 °C 1.7 °C 1031 hPa NE 14.5 km/h 20.4 km/h 88 % 0 mm
10:22 3.6 °C 1.8 °C 1031 hPa ENE 14 km/h 20.9 km/h 88 % 0 mm
10:27 3.7 °C 1.9 °C 1031 hPa ENE 13.5 km/h 18.5 km/h 88 % 0 mm
10:32 3.7 °C 1.8 °C 1031 hPa East 14.8 km/h 18.5 km/h 87 % 0 mm
10:34 3.7 °C 1.8 °C 1031 hPa ENE 16.4 km/h 20.4 km/h 87 % 0 mm
10:39 3.8 °C 1.7 °C 1031 hPa ENE 15.3 km/h 18.5 km/h 86 % 0 mm
10:44 3.8 °C 1.7 °C 1031.4 hPa ENE 13 km/h 18.5 km/h 86 % 0 mm
10:49 3.8 °C 1.7 °C 1031.4 hPa ENE 15.4 km/h 22.2 km/h 86 % 0 mm
10:54 3.8 °C 1.7 °C 1031.4 hPa ENE 13.7 km/h 20.9 km/h 86 % 0 mm
10:59 3.8 °C 1.6 °C 1031.4 hPa East 14.3 km/h 17.7 km/h 85 % 0 mm
11:04 3.8 °C 1.7 °C 1031.4 hPa ENE 13.2 km/h 18.5 km/h 86 % 0 mm
11:09 3.9 °C 1.8 °C 1031.4 hPa ENE 10.6 km/h 18.5 km/h 86 % 0 mm
11:14 3.9 °C 1.7 °C 1031.4 hPa ENE 11.6 km/h 18.5 km/h 85 % 0 mm
11:19 3.9 °C 1.7 °C 1031.4 hPa ENE 15.4 km/h 18.5 km/h 85 % 0 mm
11:24 3.9 °C 1.7 °C 1031.4 hPa ENE 15.1 km/h 24.1 km/h 85 % 0 mm
11:29 3.9 °C 1.7 °C 1031 hPa ENE 15.4 km/h 20.9 km/h 85 % 0 mm
11:34 3.9 °C 1.7 °C 1031.4 hPa East 10 km/h 16.7 km/h 85 % 0 mm
11:39 3.9 °C 1.6 °C 1031.4 hPa ENE 11.9 km/h 16.1 km/h 85 % 0 mm
11:44 3.9 °C 1.6 °C 1031.4 hPa East 14.2 km/h 18.5 km/h 85 % 0 mm
11:49 3.9 °C 1.6 °C 1031.4 hPa East 10.8 km/h 16.7 km/h 85 % 0 mm
11:54 3.9 °C 1.8 °C 1031.4 hPa East 11.7 km/h 16.7 km/h 86 % 0 mm
11:59 4.1 °C 1.8 °C 1031 hPa ENE 12.7 km/h 18.5 km/h 85 % 0 mm
12:05 4.1 °C 1.8 °C 1031.4 hPa ENE 12.2 km/h 16.7 km/h 85 % 0 mm
12:10 4.2 °C 1.9 °C 1031 hPa East 14.2 km/h 16.7 km/h 85 % 0 mm
12:15 4.2 °C 1.9 °C 1031.4 hPa NE 10.8 km/h 16.7 km/h 85 % 0 mm
12:20 4.3 °C 2 °C 1031.4 hPa ENE 11.9 km/h 14.8 km/h 85 % 0 mm
12:25 4.3 °C 2.1 °C 1031.4 hPa East 12.9 km/h 20.4 km/h 85 % 0 mm
12:30 4.3 °C 1.9 °C 1031 hPa East 11.3 km/h 16.7 km/h 84 % 0 mm
12:35 4.3 °C 1.9 °C 1031 hPa East 13.4 km/h 20.4 km/h 84 % 0 mm
12:44 4.3 °C 1.9 °C 1031 hPa ENE 12.6 km/h 18.5 km/h 84 % 0 mm
12:49 4.4 °C 2.1 °C 1031 hPa East 15 km/h 18.5 km/h 85 % 0 mm
12:54 4.3 °C 1.9 °C 1031 hPa ENE 13.7 km/h 18.5 km/h 84 % 0 mm
13:00 4.4 °C 2.1 °C 1031 hPa East 14.2 km/h 18.5 km/h 85 % 0 mm
13:05 4.4 °C 1.9 °C 1030.7 hPa ENE 15.9 km/h 22.2 km/h 84 % 0 mm
13:10 4.3 °C 2 °C 1030.7 hPa ENE 12.4 km/h 18.5 km/h 85 % 0 mm
13:15 4.3 °C 1.8 °C 1030.7 hPa ENE 11.6 km/h 18.5 km/h 84 % 0 mm
13:20 4.2 °C 1.8 °C 1030.7 hPa ENE 13 km/h 18.5 km/h 84 % 0 mm
13:25 4.2 °C 1.9 °C 1030.4 hPa NE 17.2 km/h 27.8 km/h 85 % 0 mm
13:30 4.2 °C 1.9 °C 1030.4 hPa ENE 13.7 km/h 16.7 km/h 85 % 0 mm
13:35 4.1 °C 1.8 °C 1030.4 hPa East 14 km/h 18.5 km/h 85 % 0 mm
13:40 4.1 °C 1.8 °C 1030.4 hPa East 12.1 km/h 18.5 km/h 85 % 0 mm
13:45 4.1 °C 2 °C 1030.4 hPa ENE 12.4 km/h 17.7 km/h 86 % 0 mm
13:50 4.1 °C 2 °C 1030.4 hPa East 12.6 km/h 16.1 km/h 86 % 0 mm
13:55 4.2 °C 2.2 °C 1030 hPa ENE 11.4 km/h 16.1 km/h 87 % 0 mm
14:00 4.1 °C 2 °C 1030 hPa ENE 12.7 km/h 18.5 km/h 86 % 0 mm
14:05 4.1 °C 2.2 °C 1030 hPa ENE 11.7 km/h 16.1 km/h 87 % 0 mm
14:10 4.1 °C 2.1 °C 1030 hPa NE 13.2 km/h 18.5 km/h 87 % 0 mm
14:15 4.1 °C 2.3 °C 1030 hPa ENE 9.5 km/h 14.5 km/h 88 % 0 mm
14:20 4.1 °C 2.3 °C 1030 hPa ENE 10.3 km/h 14.8 km/h 88 % 0 mm
14:25 4.2 °C 2.5 °C 1030 hPa ENE 14.2 km/h 17.7 km/h 89 % 0 mm
14:30 4.1 °C 2.3 °C 1029.7 hPa East 14.3 km/h 18.5 km/h 88 % 0 mm
14:35 4.2 °C 2.3 °C 1029.7 hPa East 13.4 km/h 18.5 km/h 88 % 0 mm
14:40 4.1 °C 2.3 °C 1029.7 hPa ENE 10.6 km/h 16.7 km/h 88 % 0 mm
14:45 4.2 °C 2.3 °C 1029.7 hPa ENE 12.9 km/h 18.5 km/h 88 % 0 mm
14:50 4.1 °C 2.3 °C 1029.7 hPa ENE 11.3 km/h 14.8 km/h 88 % 0 mm
14:55 4.1 °C 2.4 °C 1029.7 hPa ENE 11.9 km/h 16.7 km/h 89 % 0 mm
15:00 4.1 °C 2.4 °C 1029.7 hPa ENE 9.7 km/h 14.8 km/h 89 % 0 mm
15:06 4.1 °C 2.4 °C 1029.7 hPa ENE 11.3 km/h 14.8 km/h 89 % 0 mm
15:11 4.1 °C 2.4 °C 1029.3 hPa ENE 10.3 km/h 16.7 km/h 89 % 0 mm
15:16 4.1 °C 2.6 °C 1029.3 hPa ENE 11.1 km/h 16.7 km/h 90 % 0 mm
15:21 4.1 °C 2.6 °C 1029 hPa ENE 10.3 km/h 17.7 km/h 90 % 0 mm
15:26 4.1 °C 2.4 °C 1029 hPa East 12.7 km/h 18.5 km/h 89 % 0 mm
15:31 4.2 °C 2.7 °C 1029 hPa ENE 13.5 km/h 18.5 km/h 90 % 0 mm
15:36 4.2 °C 2.6 °C 1029 hPa ENE 10.5 km/h 20.4 km/h 89 % 0 mm
15:41 4.3 °C 2.8 °C 1029 hPa East 11.1 km/h 14.5 km/h 90 % 0 mm
15:46 4.4 °C 2.9 °C 1029 hPa ENE 12.1 km/h 18.5 km/h 90 % 0 mm
15:51 4.5 °C 2.8 °C 1028.7 hPa ENE 11.7 km/h 18.5 km/h 89 % 0 mm
15:56 4.6 °C 2.9 °C 1028.7 hPa ENE 13.7 km/h 18.5 km/h 89 % 0 mm
16:01 4.6 °C 2.9 °C 1028.3 hPa ENE 12.1 km/h 14.8 km/h 89 % 0 mm
16:06 4.7 °C 3 °C 1028.3 hPa ENE 14 km/h 20.4 km/h 89 % 0 mm
16:11 4.7 °C 2.8 °C 1028.3 hPa ENE 12.7 km/h 14.8 km/h 88 % 0 mm
16:16 4.7 °C 3 °C 1028.7 hPa East 13.4 km/h 16.7 km/h 89 % 0 mm
16:21 4.7 °C 2.8 °C 1028.7 hPa ENE 11.4 km/h 18.5 km/h 88 % 0 mm
16:26 4.6 °C 2.9 °C 1028.7 hPa ENE 11.7 km/h 14.8 km/h 89 % 0 mm
16:31 4.6 °C 2.9 °C 1028.7 hPa East 13.4 km/h 16.7 km/h 89 % 0 mm
16:36 4.6 °C 2.9 °C 1028.3 hPa East 13.2 km/h 18.5 km/h 89 % 0 mm
16:41 4.6 °C 3.1 °C 1028.7 hPa ENE 10 km/h 18.5 km/h 90 % 0 mm
16:46 4.5 °C 3 °C 1028.7 hPa ENE 10.3 km/h 13 km/h 90 % 0 mm
16:52 4.4 °C 2.9 °C 1028.3 hPa East 10.3 km/h 18.5 km/h 90 % 0 mm
16:57 4.4 °C 2.9 °C 1028.3 hPa East 13.4 km/h 18.5 km/h 90 % 0 mm
17:02 4.4 °C 2.9 °C 1028.3 hPa East 9 km/h 13 km/h 90 % 0 mm
17:07 4.4 °C 3.1 °C 1028.7 hPa East 11.3 km/h 14.5 km/h 91 % 0 mm
17:12 4.4 °C 3.1 °C 1028.7 hPa ENE 8.4 km/h 14.8 km/h 91 % 0 mm
17:17 4.3 °C 3 °C 1028.7 hPa ENE 10.9 km/h 16.7 km/h 91 % 0 mm
17:22 4.3 °C 3 °C 1028.7 hPa ENE 13.7 km/h 16.7 km/h 91 % 0 mm
17:25 4.3 °C 3 °C 1028.7 hPa ENE 8.5 km/h 13 km/h 91 % 0 mm
17:30 4.3 °C 2.9 °C 1028.3 hPa ENE 10.6 km/h 16.7 km/h 91 % 0 mm
17:35 4.3 °C 2.9 °C 1028.3 hPa ENE 9.7 km/h 16.7 km/h 91 % 0 mm
17:40 4.2 °C 2.9 °C 1028.3 hPa ENE 11.7 km/h 16.7 km/h 91 % 0 mm
17:45 4.2 °C 3.1 °C 1028.3 hPa ENE 10.5 km/h 13 km/h 92 % 0 mm
17:50 4.2 °C 3.1 °C 1028.3 hPa ENE 5.8 km/h 13 km/h 92 % 0 mm
17:55 4.2 °C 3.1 °C 1028.3 hPa ENE 7.6 km/h 14.8 km/h 92 % 0 mm
18:00 4.2 °C 3 °C 1028.3 hPa ENE 7.2 km/h 13 km/h 92 % 0 mm
18:05 4.2 °C 3 °C 1028.3 hPa NE 9.8 km/h 14.5 km/h 92 % 0 mm
18:10 4.2 °C 3 °C 1028.3 hPa ENE 9.2 km/h 13 km/h 92 % 0 mm
18:15 4.2 °C 3 °C 1028 hPa ENE 10.1 km/h 14.8 km/h 92 % 0 mm
18:20 4.1 °C 2.9 °C 1028 hPa ENE 9.8 km/h 14.8 km/h 92 % 0 mm
18:22 4.1 °C 2.9 °C 1028 hPa East 7.7 km/h 11.1 km/h 92 % 0 mm
18:27 4.1 °C 2.9 °C 1028 hPa ENE 9.7 km/h 14.8 km/h 92 % 0 mm
18:32 4.1 °C 2.9 °C 1028 hPa ENE 9.7 km/h 16.1 km/h 92 % 0 mm
18:37 4.1 °C 2.9 °C 1028 hPa ENE 11.3 km/h 12.9 km/h 92 % 0 mm
18:42 4.1 °C 2.9 °C 1028 hPa East 9.7 km/h 14.5 km/h 92 % 0 mm
18:47 4.1 °C 2.9 °C 1028 hPa ENE 9.7 km/h 12.9 km/h 92 % 0 mm
18:52 4.1 °C 2.9 °C 1028 hPa ENE 11.3 km/h 14.5 km/h 92 % 0 mm
18:58 4.1 °C 2.9 °C 1028 hPa East 9.7 km/h 13 km/h 92 % 0 mm
19:03 4.1 °C 2.9 °C 1028 hPa East 10 km/h 13 km/h 92 % 0 mm
19:08 4.1 °C 2.9 °C 1028 hPa East 8.7 km/h 11.3 km/h 92 % 0 mm
19:13 4.1 °C 2.9 °C 1027.7 hPa East 7.4 km/h 11.3 km/h 92 % 0 mm
19:18 4.1 °C 2.9 °C 1027.7 hPa East 9 km/h 13 km/h 92 % 0 mm
19:23 4.1 °C 2.9 °C 1027.7 hPa East 6.1 km/h 8 km/h 92 % 0 mm
19:24 4.1 °C 2.9 °C 1027.7 hPa East 6.1 km/h 9.7 km/h 92 % 0 mm
19:30 4.1 °C 2.9 °C 1027.7 hPa East 6.4 km/h 11.1 km/h 92 % 0 mm
19:35 4.2 °C 2.9 °C 1027.7 hPa East 7.1 km/h 13 km/h 91 % 0 mm
19:40 4.3 °C 2.8 °C 1027.7 hPa East 6.1 km/h 9.3 km/h 90 % 0 mm
19:45 4.3 °C 2.8 °C 1027.7 hPa East 9.2 km/h 14.8 km/h 90 % 0 mm
19:50 4.4 °C 2.9 °C 1027.3 hPa East 6.6 km/h 11.3 km/h 90 % 0 mm
19:55 4.4 °C 2.9 °C 1027.3 hPa ESE 8.9 km/h 13 km/h 90 % 0 mm
20:00 4.4 °C 2.9 °C 1027.7 hPa ESE 5.3 km/h 11.1 km/h 90 % 0 mm
20:05 4.4 °C 2.9 °C 1027.7 hPa East 2.6 km/h 5.6 km/h 90 % 0 mm
20:10 4.4 °C 2.9 °C 1027.7 hPa East 1.8 km/h 5.6 km/h 90 % 0 mm
20:15 4.4 °C 2.9 °C 1027.7 hPa East 3.9 km/h 7.4 km/h 90 % 0 mm
20:20 4.3 °C 2.8 °C 1027.7 hPa East 6.9 km/h 8 km/h 90 % 0 mm
20:25 4.3 °C 2.8 °C 1027.3 hPa East 8.5 km/h 9.3 km/h 90 % 0 mm
20:30 4.3 °C 2.8 °C 1027.3 hPa East 7.6 km/h 14.8 km/h 90 % 0 mm
20:35 4.3 °C 2.8 °C 1027.3 hPa East 8.4 km/h 13 km/h 90 % 0 mm
20:40 4.3 °C 2.8 °C 1027.3 hPa East 8.5 km/h 11.1 km/h 90 % 0 mm
20:45 4.2 °C 2.9 °C 1027.7 hPa East 4.3 km/h 9.3 km/h 91 % 0 mm
20:50 4.2 °C 2.9 °C 1027.3 hPa East 6 km/h 9.3 km/h 91 % 0 mm
20:55 4.2 °C 2.8 °C 1027.7 hPa East 4.8 km/h 8 km/h 91 % 0 mm
21:00 4.2 °C 3 °C 1027.7 hPa East 6.6 km/h 8 km/h 92 % 0 mm
21:05 4.1 °C 2.9 °C 1027.7 hPa East 3.5 km/h 5.6 km/h 92 % 0 mm
21:10 4.1 °C 2.9 °C 1027.7 hPa ENE 4 km/h 5.6 km/h 92 % 0 mm
21:15 4.1 °C 2.9 °C 1027.7 hPa East 4.8 km/h 8 km/h 92 % 0 mm
21:20 4.1 °C 3 °C 1027.7 hPa ENE 3.5 km/h 7.4 km/h 93 % 0 mm
21:25 4 °C 2.9 °C 1027.7 hPa ENE 5.5 km/h 8 km/h 93 % 0 mm
21:30 4 °C 2.9 °C 1027.7 hPa NE 6.1 km/h 11.3 km/h 93 % 0 mm
21:35 3.9 °C 2.8 °C 1027.7 hPa ENE 6.6 km/h 12.9 km/h 93 % 0 mm
21:40 3.8 °C 2.7 °C 1027.3 hPa ENE 7.1 km/h 11.3 km/h 93 % 0 mm
21:41 3.8 °C 2.7 °C 1027.3 hPa East 7.1 km/h 11.1 km/h 93 % 0 mm
21:46 3.7 °C 2.8 °C 1027.3 hPa ENE 7.1 km/h 9.3 km/h 94 % 0 mm
21:51 3.7 °C 2.8 °C 1027.3 hPa ENE 5.5 km/h 11.1 km/h 94 % 0 mm
21:56 3.7 °C 2.8 °C 1027.3 hPa East 6 km/h 9.3 km/h 94 % 0 mm
22:01 3.7 °C 2.9 °C 1027 hPa East 6.3 km/h 9.3 km/h 95 % 0 mm
22:06 3.7 °C 2.9 °C 1027 hPa East 5.8 km/h 9.7 km/h 95 % 0 mm
22:11 3.7 °C 2.9 °C 1027 hPa ENE 7.6 km/h 11.1 km/h 95 % 0 mm
22:16 3.6 °C 2.9 °C 1027 hPa ENE 8.5 km/h 11.1 km/h 95 % 0 mm
22:21 3.6 °C 2.8 °C 1027 hPa East 9 km/h 11.3 km/h 95 % 0 mm
22:26 3.6 °C 2.8 °C 1027 hPa NE 6.9 km/h 11.1 km/h 95 % 0 mm
22:31 3.5 °C 2.8 °C 1027 hPa East 10.3 km/h 11.3 km/h 95 % 0 mm
22:36 3.5 °C 2.8 °C 1026.6 hPa ENE 9 km/h 14.8 km/h 95 % 0 mm
22:41 3.5 °C 2.9 °C 1026.6 hPa ENE 12.4 km/h 14.8 km/h 96 % 0 mm
22:46 3.4 °C 2.9 °C 1026.6 hPa East 11.4 km/h 14.8 km/h 96 % 0 mm
22:51 3.4 °C 2.7 °C 1026.3 hPa East 10.6 km/h 13 km/h 95 % 0 mm
22:56 3.4 °C 2.9 °C 1026.3 hPa ENE 11.7 km/h 16.7 km/h 96 % 0 mm
23:01 3.4 °C 2.9 °C 1026.3 hPa ENE 9.5 km/h 14.8 km/h 96 % 0 mm
23:06 3.4 °C 2.8 °C 1026.3 hPa ENE 13 km/h 18.5 km/h 96 % 0 mm
23:11 3.3 °C 2.8 °C 1026.3 hPa ENE 9.7 km/h 11.3 km/h 96 % 0 mm
23:16 3.3 °C 2.8 °C 1026.3 hPa ENE 10.8 km/h 13 km/h 96 % 0 mm
23:21 3.3 °C 2.8 °C 1026.3 hPa East 9.3 km/h 13 km/h 96 % 0 mm
23:26 3.3 °C 2.8 °C 1026.3 hPa ENE 11.4 km/h 16.7 km/h 96 % 0 mm
23:31 3.3 °C 2.8 °C 1026.3 hPa East 10.5 km/h 16.7 km/h 96 % 0 mm
23:37 3.3 °C 2.8 °C 1026.3 hPa East 8.5 km/h 13 km/h 96 % 0 mm
23:42 3.3 °C 2.8 °C 1026.3 hPa ENE 8.4 km/h 13 km/h 96 % 0 mm
23:47 3.3 °C 2.8 °C 1026 hPa ENE 10.8 km/h 16.7 km/h 96 % 0 mm
23:52 3.3 °C 2.8 °C 1026 hPa ENE 12.2 km/h 17.7 km/h 96 % 0 mm
23:57 3.3 °C 2.7 °C 1026 hPa East 10 km/h 13 km/h 96 % 0 mm
Crab Meadow Weather
Compliments of Weather Underground - 3 mb

Script developed by  Jim McMurry - jmcmurry@mwt.net Adapted for the template by  Wim van der Kuil - Leuven-Template.eu

Weather Terms: Warning - A warning is issued when a hazardous weather or hydrologic event is occurring, imminent or likely. A warning means weather conditions pose a threat to life or property. People in the path of the storm need to take protective action.